createdAt,value
2023-03-02T00:00:40.883Z,101935.66
2023-03-02T00:01:45.187Z,101933.44
2023-03-02T00:02:49.649Z,101932.56
2023-03-02T00:03:54.224Z,101933.62
2023-03-02T00:04:58.614Z,101930.2
2023-03-02T00:06:02.883Z,101932.66
2023-03-02T00:07:07.160Z,101929.11
2023-03-02T00:08:11.453Z,101936.78
2023-03-02T00:09:15.727Z,101940.99
2023-03-02T00:10:19.967Z,101929.97
2023-03-02T00:11:24.252Z,101933.27
2023-03-02T00:12:28.529Z,101931.25
2023-03-02T00:13:32.827Z,101925.59
2023-03-02T00:14:37.087Z,101919.52
2023-03-02T00:15:41.425Z,101924.2
2023-03-02T00:16:45.781Z,101919.77
2023-03-02T00:17:50.066Z,101920.85
2023-03-02T00:18:54.385Z,101922.55
2023-03-02T00:19:58.650Z,101925.42
2023-03-02T00:21:02.911Z,101923.84
2023-03-02T00:22:08.241Z,101917.81
2023-03-02T00:23:14.517Z,101917.81
2023-03-02T00:24:18.814Z,101919.34
2023-03-02T00:25:23.100Z,101916.56
2023-03-02T00:26:27.454Z,101912.7
2023-03-02T00:27:31.728Z,101916.36
2023-03-02T00:28:36.005Z,101910.59
2023-03-02T00:29:40.249Z,101916.36
2023-03-02T00:30:44.523Z,101908.94
2023-03-02T00:31:48.962Z,101911.2
2023-03-02T00:32:53.514Z,101902.25
2023-03-02T00:33:57.838Z,101904.37
2023-03-02T00:35:02.192Z,101908.08
2023-03-02T00:36:06.502Z,101900.12
2023-03-02T00:37:11.108Z,101907.44
2023-03-02T00:38:15.386Z,101912.18
2023-03-02T00:39:19.659Z,101910.5
2023-03-02T00:40:23.973Z,101905.03
2023-03-02T00:41:28.268Z,101911.17
2023-03-02T00:42:32.591Z,101913.38
2023-03-02T00:43:36.839Z,101908.27
2023-03-02T00:44:41.204Z,101913.18
2023-03-02T00:45:45.486Z,101911.73
2023-03-02T00:46:49.882Z,101914.35
2023-03-02T00:47:54.323Z,101916.67
2023-03-02T00:48:58.572Z,101916.95
2023-03-02T00:50:02.882Z,101914.99
2023-03-02T00:51:07.151Z,101910.2
2023-03-02T00:52:11.445Z,101913.3
2023-03-02T00:53:15.719Z,101921.47
2023-03-02T00:54:20.018Z,101913.62
2023-03-02T00:55:24.310Z,101915.49
2023-03-02T00:56:28.603Z,101915.44
2023-03-02T00:57:33.451Z,101910.28
2023-03-02T00:58:37.759Z,101908.08
2023-03-02T00:59:42.014Z,101905.48
2023-03-02T01:00:46.268Z,101904.06
2023-03-02T01:01:50.548Z,101899.93
2023-03-02T01:02:55.038Z,101898.23
2023-03-02T01:03:59.572Z,101894.02
2023-03-02T01:05:03.824Z,101894.27
2023-03-02T01:06:08.185Z,101894.33
2023-03-02T01:07:12.476Z,101894.83
2023-03-02T01:08:16.765Z,101895.5
2023-03-02T01:09:21.073Z,101899.67
2023-03-02T01:10:25.333Z,101894.63
2023-03-02T01:11:29.642Z,101888.55
2023-03-02T01:12:33.900Z,101888.08
2023-03-02T01:13:38.156Z,101887.27
2023-03-02T01:14:42.488Z,101886.69
2023-03-02T01:15:46.876Z,101888.44
2023-03-02T01:16:51.239Z,101887.16
2023-03-02T01:17:55.539Z,101890.28
2023-03-02T01:18:59.824Z,101896.89
2023-03-02T01:20:04.162Z,101889.83
2023-03-02T01:21:08.449Z,101884.06
2023-03-02T01:22:12.744Z,101890.56
2023-03-02T01:23:17.008Z,101882.97
2023-03-02T01:24:21.273Z,101886.91
2023-03-02T01:25:25.548Z,101887.87
2023-03-02T01:26:30.048Z,101881.64
2023-03-02T01:27:34.765Z,101883.81
2023-03-02T01:28:39.093Z,101879.12
2023-03-02T01:29:43.358Z,101875.55
2023-03-02T01:30:47.905Z,101876.95
2023-03-02T01:31:52.567Z,101871.43
2023-03-02T01:32:57.103Z,101873.35
2023-03-02T01:34:01.425Z,101862.28
2023-03-02T01:35:05.682Z,101867.58
2023-03-02T01:36:09.956Z,101864.48
2023-03-02T01:37:14.263Z,101864.48
2023-03-02T01:38:18.695Z,101862.11
2023-03-02T01:39:23.077Z,101863.81
2023-03-02T01:40:27.385Z,101862.98
2023-03-02T01:41:31.620Z,101860.3
2023-03-02T01:42:35.865Z,101857.9
2023-03-02T01:43:40.150Z,101860.22
2023-03-02T01:44:44.411Z,101856.65
2023-03-02T01:45:48.899Z,101851.91
2023-03-02T01:46:53.275Z,101856.56
2023-03-02T01:47:57.539Z,101849.29
2023-03-02T01:49:01.815Z,101848.98
2023-03-02T01:50:06.100Z,101850.43
2023-03-02T01:51:10.553Z,101850.84
2023-03-02T01:52:14.785Z,101854.33
2023-03-02T01:53:19.086Z,101852.63
2023-03-02T01:54:23.528Z,101851.6
2023-03-02T01:55:27.863Z,101846.3
2023-03-02T01:56:32.896Z,101849.76
2023-03-02T01:57:37.577Z,101847.22
2023-03-02T01:58:41.926Z,101845.33
2023-03-02T01:59:46.229Z,101849.48
2023-03-02T02:00:50.564Z,101847.89
2023-03-02T02:01:54.995Z,101846.97
2023-03-02T02:02:59.281Z,101845.52
2023-03-02T02:04:03.667Z,101849.84
2023-03-02T02:05:08.078Z,101847.22
2023-03-02T02:06:12.353Z,101843.71
2023-03-02T02:07:16.630Z,101851.69
2023-03-02T02:08:20.905Z,101848.64
2023-03-02T02:09:25.218Z,101846.75
2023-03-02T02:10:29.494Z,101842.23
2023-03-02T02:11:33.768Z,101846.8
2023-03-02T02:12:38.052Z,101844.55
2023-03-02T02:13:42.312Z,101845.72
2023-03-02T02:14:46.651Z,101844.85
2023-03-02T02:15:50.948Z,101849.48
2023-03-02T02:16:55.472Z,101842.57
2023-03-02T02:17:59.887Z,101846.95
2023-03-02T02:19:04.257Z,101849.17
2023-03-02T02:20:08.553Z,101844.08
2023-03-02T02:21:12.826Z,101844.69
2023-03-02T02:22:17.100Z,101852.11
2023-03-02T02:23:21.465Z,101846.25
2023-03-02T02:24:25.747Z,101849.06
2023-03-02T02:25:30.025Z,101847.36
2023-03-02T02:26:34.917Z,101840
2023-03-02T02:27:39.262Z,101840.98
2023-03-02T02:28:43.528Z,101843.77
2023-03-02T02:29:47.836Z,101837.58
2023-03-02T02:30:52.114Z,101838.83
2023-03-02T02:31:56.704Z,101842.48
2023-03-02T02:33:01.379Z,101842.98
2023-03-02T02:34:05.644Z,101834.9
2023-03-02T02:35:09.897Z,101837.27
2023-03-02T02:36:14.163Z,101833.2
2023-03-02T02:37:18.443Z,101828.3
2023-03-02T02:38:22.702Z,101833.09
2023-03-02T02:39:26.961Z,101826.23
2023-03-02T02:40:31.245Z,101828.71
2023-03-02T02:41:35.511Z,101831.08
2023-03-02T02:42:39.765Z,101829.88
2023-03-02T02:43:44.042Z,101825.25
2023-03-02T02:44:48.345Z,101827.84
2023-03-02T02:45:52.739Z,101831.95
2023-03-02T02:46:57.179Z,101831.22
2023-03-02T02:48:01.437Z,101827.73
2023-03-02T02:49:05.675Z,101824.22
2023-03-02T02:50:09.976Z,101837.24
2023-03-02T02:51:14.219Z,101832.36
2023-03-02T02:52:18.548Z,101832
2023-03-02T02:53:22.830Z,101841.01
2023-03-02T02:54:27.083Z,101837.3
2023-03-02T02:55:31.347Z,101835.15
2023-03-02T02:56:36.016Z,101833.39
2023-03-02T02:57:40.305Z,101834.38
2023-03-02T02:58:44.592Z,101833.23
2023-03-02T02:59:48.853Z,101831.53
2023-03-02T03:00:53.198Z,101832
2023-03-02T03:01:57.530Z,101836.02
2023-03-02T03:03:01.857Z,101833.45
2023-03-02T03:04:06.281Z,101831.86
2023-03-02T03:05:10.742Z,101832.47
2023-03-02T03:06:14.989Z,101832.36
2023-03-02T03:07:19.373Z,101832.55
2023-03-02T03:08:23.676Z,101831.95
2023-03-02T03:09:27.983Z,101827.26
2023-03-02T03:10:32.304Z,101832.2
2023-03-02T03:11:36.599Z,101830.91
2023-03-02T03:12:40.894Z,101837.21
2023-03-02T03:13:45.194Z,101832.78
2023-03-02T03:14:49.635Z,101836.22
2023-03-02T03:15:53.919Z,101834.78
2023-03-02T03:16:58.338Z,101839.67
2023-03-02T03:18:02.691Z,101839.3
2023-03-02T03:19:06.954Z,101836.38
2023-03-02T03:20:11.223Z,101840.28
2023-03-02T03:21:15.513Z,101836.32
2023-03-02T03:22:19.809Z,101839.55
2023-03-02T03:23:24.087Z,101840.11
2023-03-02T03:24:28.379Z,101839.75
2023-03-02T03:25:32.628Z,101839.19
2023-03-02T03:26:36.945Z,101844.23
2023-03-02T03:27:41.384Z,101842.17
2023-03-02T03:28:45.700Z,101847.58
2023-03-02T03:29:50.002Z,101842.73
2023-03-02T03:30:54.341Z,101843.87
2023-03-02T03:31:58.830Z,101834.65
2023-03-02T03:33:03.228Z,101841.34
2023-03-02T03:34:07.563Z,101843.31
2023-03-02T03:35:11.858Z,101838.41
2023-03-02T03:36:16.123Z,101841.25
2023-03-02T03:37:20.386Z,101844.02
2023-03-02T03:38:24.668Z,101850.81
2023-03-02T03:39:29.002Z,101854.05
2023-03-02T03:40:33.254Z,101848.22
2023-03-02T03:41:37.519Z,101848.7
2023-03-02T03:42:41.811Z,101847.41
2023-03-02T03:43:46.155Z,101843.78
2023-03-02T03:44:50.483Z,101851.73
2023-03-02T03:45:54.798Z,101847.5
2023-03-02T03:46:59.107Z,101849.72
2023-03-02T03:48:03.431Z,101847.55
2023-03-02T03:49:07.710Z,101842.2
2023-03-02T03:50:12.096Z,101842.2
2023-03-02T03:51:16.360Z,101840.8
2023-03-02T03:52:20.624Z,101843.48
2023-03-02T03:53:24.907Z,101842.56
2023-03-02T03:54:29.176Z,101842.25
2023-03-02T03:55:33.464Z,101843.03
2023-03-02T03:56:37.704Z,101830.99
2023-03-02T03:57:41.974Z,101838.66
2023-03-02T03:58:46.415Z,101839.69
2023-03-02T03:59:50.752Z,101829.83
2023-03-02T04:00:55.065Z,101832.08
2023-03-02T04:01:59.586Z,101838.97
2023-03-02T04:03:03.963Z,101835.17
2023-03-02T04:04:08.421Z,101834.39
2023-03-02T04:05:12.676Z,101832.27
2023-03-02T04:06:16.926Z,101839.47
2023-03-02T04:07:21.203Z,101829.8
2023-03-02T04:08:25.531Z,101834.37
2023-03-02T04:09:29.807Z,101831.74
2023-03-02T04:10:34.117Z,101837.41
2023-03-02T04:11:38.418Z,101832.78
2023-03-02T04:12:42.676Z,101839.02
2023-03-02T04:13:46.918Z,101828.88
2023-03-02T04:14:51.184Z,101830.99
2023-03-02T04:15:55.559Z,101831.91
2023-03-02T04:16:59.899Z,101829.59
2023-03-02T04:18:04.206Z,101830.02
2023-03-02T04:19:08.452Z,101820.18
2023-03-02T04:20:12.957Z,101822.8
2023-03-02T04:21:17.202Z,101827.67
2023-03-02T04:22:21.438Z,101818.22
2023-03-02T04:23:25.708Z,101821.62
2023-03-02T04:24:30.027Z,101817.97
2023-03-02T04:25:34.307Z,101821.62
2023-03-02T04:26:38.609Z,101825.78
2023-03-02T04:27:42.870Z,101820.8
2023-03-02T04:28:47.125Z,101825.03
2023-03-02T04:29:51.428Z,101829.66
2023-03-02T04:30:55.757Z,101827.34
2023-03-02T04:32:00.326Z,101818.67
2023-03-02T04:33:04.882Z,101813.96
2023-03-02T04:34:09.151Z,101822.3
2023-03-02T04:35:13.406Z,101824.66
2023-03-02T04:36:17.665Z,101822.8
2023-03-02T04:37:21.949Z,101828.16
2023-03-02T04:38:26.214Z,101821.98
2023-03-02T04:39:30.486Z,101819.26
2023-03-02T04:40:34.728Z,101822.72
2023-03-02T04:41:39.004Z,101824.97
2023-03-02T04:42:43.257Z,101819.77
2023-03-02T04:43:47.536Z,101828.62
2023-03-02T04:44:51.807Z,101828.48
2023-03-02T04:45:56.118Z,101826.06
2023-03-02T04:47:00.619Z,101832.39
2023-03-02T04:48:05.048Z,101828.16
2023-03-02T04:49:09.307Z,101838.41
2023-03-02T04:50:13.603Z,101832.86
2023-03-02T04:51:17.884Z,101832.08
2023-03-02T04:52:22.159Z,101841.81
2023-03-02T04:53:26.462Z,101832.86
2023-03-02T04:54:30.765Z,101838.77
2023-03-02T04:55:35.028Z,101831.83
2023-03-02T04:56:39.276Z,101835.12
2023-03-02T04:57:43.568Z,101838.36
2023-03-02T04:58:47.870Z,101839.55
2023-03-02T04:59:52.133Z,101838.22
2023-03-02T05:00:56.422Z,101838.44
2023-03-02T05:02:00.793Z,101842.15
2023-03-02T05:03:05.130Z,101840.75
2023-03-02T05:04:09.448Z,101835.42
2023-03-02T05:05:13.753Z,101839.61
2023-03-02T05:06:18.063Z,101842.2
2023-03-02T05:07:22.339Z,101843.19
2023-03-02T05:08:26.591Z,101840.06
2023-03-02T05:09:30.971Z,101838.05
2023-03-02T05:10:35.274Z,101843.02
2023-03-02T05:11:39.562Z,101844.01
2023-03-02T05:12:43.876Z,101844.28
2023-03-02T05:13:48.150Z,101842.59
2023-03-02T05:14:52.451Z,101837.89
2023-03-02T05:15:56.911Z,101838.98
2023-03-02T05:17:01.319Z,101842.05
2023-03-02T05:18:05.609Z,101842.05
2023-03-02T05:19:09.910Z,101842.56
2023-03-02T05:20:14.208Z,101847.14
2023-03-02T05:21:18.481Z,101848.63
2023-03-02T05:22:22.760Z,101847.23
2023-03-02T05:23:27.103Z,101847.66
2023-03-02T05:24:31.440Z,101842.66
2023-03-02T05:25:35.714Z,101847.14
2023-03-02T05:26:39.969Z,101845.39
2023-03-02T05:27:44.257Z,101845.03
2023-03-02T05:28:48.603Z,101845.53
2023-03-02T05:29:53.619Z,101847.5
2023-03-02T05:30:57.914Z,101851.58
2023-03-02T05:32:02.275Z,101853.39
2023-03-02T05:33:06.615Z,101856.87
2023-03-02T05:34:10.905Z,101856.94
2023-03-02T05:35:15.307Z,101852.05
2023-03-02T05:36:23.287Z,101858.07
2023-03-02T05:37:27.641Z,101857.45
2023-03-02T05:38:31.890Z,101862.84
2023-03-02T05:39:36.148Z,101860.17
2023-03-02T05:40:40.403Z,101857.53
2023-03-02T05:41:44.705Z,101861.09
2023-03-02T05:42:48.968Z,101860.77
2023-03-02T05:43:53.266Z,101860.8
2023-03-02T05:44:57.520Z,101859.11
2023-03-02T05:46:01.842Z,101854.34
2023-03-02T05:47:06.255Z,101859.44
2023-03-02T05:48:10.622Z,101857.53
2023-03-02T05:49:14.890Z,101852.89
2023-03-02T05:50:19.148Z,101852.89
2023-03-02T05:51:23.385Z,101854.49
2023-03-02T05:52:27.741Z,101861.82
2023-03-02T05:53:31.998Z,101853.89
2023-03-02T05:54:36.248Z,101861.47
2023-03-02T05:55:40.496Z,101863.28
2023-03-02T05:56:44.754Z,101863.34
2023-03-02T05:57:49.004Z,101866.08
2023-03-02T05:58:53.277Z,101865.98
2023-03-02T05:59:57.525Z,101869.8
2023-03-02T06:01:01.829Z,101870.72
2023-03-02T06:02:06.205Z,101868.2
2023-03-02T06:03:10.771Z,101873.03
2023-03-02T06:04:15.151Z,101867.73
2023-03-02T06:05:19.436Z,101868.36
2023-03-02T06:06:23.716Z,101871.66
2023-03-02T06:07:27.986Z,101874.75
2023-03-02T06:08:32.212Z,101879.09
2023-03-02T06:09:36.452Z,101882.19
2023-03-02T06:10:40.680Z,101880.27
2023-03-02T06:11:44.950Z,101884.05
2023-03-02T06:12:49.194Z,101891.73
2023-03-02T06:13:53.492Z,101886.57
2023-03-02T06:14:57.744Z,101891.52
2023-03-02T06:16:02.114Z,101890.48
2023-03-02T06:17:06.419Z,101892.45
2023-03-02T06:18:10.666Z,101887.3
2023-03-02T06:19:14.987Z,101892.3
2023-03-02T06:20:19.269Z,101900.89
2023-03-02T06:21:23.513Z,101899.36
2023-03-02T06:22:27.746Z,101898.94
2023-03-02T06:23:32.020Z,101902.38
2023-03-02T06:24:36.277Z,101900.32
2023-03-02T06:25:40.549Z,101899.45
2023-03-02T06:26:44.864Z,101905.48
2023-03-02T06:27:49.129Z,101905.3
2023-03-02T06:28:54.955Z,101904.41
2023-03-02T06:29:59.228Z,101909.15
2023-03-02T06:31:03.524Z,101899.91
2023-03-02T06:32:08.103Z,101909.91
2023-03-02T06:33:12.527Z,101909.96
2023-03-02T06:34:16.784Z,101905.39
2023-03-02T06:35:21.394Z,101907.65
2023-03-02T06:36:26.133Z,101906.86
2023-03-02T06:37:30.468Z,101904.8
2023-03-02T06:38:34.711Z,101902.23
2023-03-02T06:39:38.951Z,101899.55
2023-03-02T06:40:43.267Z,101905
2023-03-02T06:41:47.516Z,101904.7
2023-03-02T06:42:51.844Z,101899.03
2023-03-02T06:43:56.083Z,101897.22
2023-03-02T06:45:00.344Z,101900.98
2023-03-02T06:46:04.737Z,101900.73
2023-03-02T06:47:09.176Z,101905.47
2023-03-02T06:48:13.397Z,101900.11
2023-03-02T06:49:17.635Z,101904.41
2023-03-02T06:50:21.926Z,101894.98
2023-03-02T06:51:26.187Z,101904.66
2023-03-02T06:52:30.448Z,101904.41
2023-03-02T06:53:34.698Z,101902.86
2023-03-02T06:54:39.024Z,101906.6
2023-03-02T06:55:43.295Z,101902.23
2023-03-02T06:56:47.545Z,101908.27
2023-03-02T06:57:51.925Z,101900.44
2023-03-02T06:58:56.228Z,101911.05
2023-03-02T07:00:00.484Z,101910.48
2023-03-02T07:01:04.845Z,101911.35
2023-03-02T07:02:09.167Z,101908.17
2023-03-02T07:03:13.528Z,101913.11
2023-03-02T07:04:17.868Z,101912.69
2023-03-02T07:05:22.163Z,101903.84
2023-03-02T07:06:26.651Z,101910.63
2023-03-02T07:07:30.925Z,101907.03
2023-03-02T07:08:35.160Z,101896
2023-03-02T07:09:39.489Z,101896.15
2023-03-02T07:10:43.784Z,101905.58
2023-03-02T07:11:48.071Z,101898.11
2023-03-02T07:12:52.330Z,101896.47
2023-03-02T07:13:56.579Z,101896.05
2023-03-02T07:15:00.862Z,101893.93
2023-03-02T07:16:05.164Z,101903.72
2023-03-02T07:17:09.527Z,101893.27
2023-03-02T07:18:13.780Z,101890.75
2023-03-02T07:19:18.024Z,101890.81
2023-03-02T07:20:22.293Z,101893.48
2023-03-02T07:21:26.545Z,101891.84
2023-03-02T07:22:30.913Z,101889.22
2023-03-02T07:23:36.166Z,101891.73
2023-03-02T07:24:40.444Z,101890.39
2023-03-02T07:25:47.269Z,101892.35
2023-03-02T07:26:51.509Z,101896.88
2023-03-02T07:27:55.763Z,101895.17
2023-03-02T07:29:00.156Z,101890.65
2023-03-02T07:30:04.435Z,101893.89
2023-03-02T07:31:08.903Z,101892.13
2023-03-02T07:32:13.829Z,101891.36
2023-03-02T07:33:18.250Z,101893.31
2023-03-02T07:34:22.485Z,101896.72
2023-03-02T07:35:26.845Z,101896.72
2023-03-02T07:36:31.190Z,101890.85
2023-03-02T07:37:36.489Z,101891.52
2023-03-02T07:38:40.731Z,101897.75
2023-03-02T07:39:44.997Z,101891.47
2023-03-02T07:40:49.250Z,101895.68
2023-03-02T07:41:53.460Z,101894.34
2023-03-02T07:42:57.718Z,101893.37
2023-03-02T07:44:01.934Z,101899.14
2023-03-02T07:45:06.169Z,101898.94
2023-03-02T07:46:10.603Z,101898.89
2023-03-02T07:47:14.925Z,101895.64
2023-03-02T07:48:19.171Z,101899.55
2023-03-02T07:49:23.427Z,101893.64
2023-03-02T07:50:28.760Z,101896.26
2023-03-02T07:51:34.016Z,101899.94
2023-03-02T07:52:40.918Z,101902.8
2023-03-02T07:53:45.420Z,101903.11
2023-03-02T07:54:49.653Z,101906.52
2023-03-02T07:55:53.900Z,101901.25
2023-03-02T07:56:58.212Z,101904.56
2023-03-02T07:58:05.476Z,101905.06
2023-03-02T07:59:09.732Z,101897.7
2023-03-02T08:00:13.965Z,101904.45
2023-03-02T08:01:18.239Z,101907.85
2023-03-02T08:02:22.675Z,101902.97
2023-03-02T08:03:27.019Z,101902.97
2023-03-02T08:04:31.296Z,101901
2023-03-02T08:05:35.547Z,101901.98
2023-03-02T08:06:42.762Z,101902.88
2023-03-02T08:07:47.081Z,101900.33
2023-03-02T08:08:51.346Z,101896.26
2023-03-02T08:09:55.655Z,101901.31
2023-03-02T08:10:59.909Z,101901.98
2023-03-02T08:12:04.203Z,101898.16
2023-03-02T08:13:08.533Z,101898.22
2023-03-02T08:14:12.800Z,101895.03
2023-03-02T08:15:17.085Z,101903.57
2023-03-02T08:16:21.476Z,101907.03
2023-03-02T08:17:25.904Z,101893.69
2023-03-02T08:18:30.165Z,101895.95
2023-03-02T08:19:34.420Z,101899.81
2023-03-02T08:20:38.727Z,101897.97
2023-03-02T08:21:42.987Z,101896.2
2023-03-02T08:22:47.341Z,101892.25
2023-03-02T08:23:51.764Z,101890.19
2023-03-02T08:24:56.108Z,101890.33
2023-03-02T08:26:00.348Z,101893.63
2023-03-02T08:27:04.770Z,101891.5
2023-03-02T08:28:09.061Z,101898.61
2023-03-02T08:29:13.314Z,101902.27
2023-03-02T08:30:17.583Z,101900.42
2023-03-02T08:31:21.934Z,101897.47
2023-03-02T08:32:26.608Z,101897.11
2023-03-02T08:33:31.045Z,101894.96
2023-03-02T08:34:35.330Z,101897.16
2023-03-02T08:35:39.724Z,101888.72
2023-03-02T08:36:44.106Z,101891.23
2023-03-02T08:37:48.356Z,101888.72
2023-03-02T08:38:52.641Z,101889.64
2023-03-02T08:39:59.544Z,101882.94
2023-03-02T08:41:03.833Z,101878.92
2023-03-02T08:42:08.109Z,101876.28
2023-03-02T08:43:12.392Z,101875.77
2023-03-02T08:44:16.652Z,101875.92
2023-03-02T08:45:21.187Z,101881.33
2023-03-02T08:46:26.516Z,101878.29
2023-03-02T08:47:30.799Z,101884.48
2023-03-02T08:48:35.069Z,101875.47
2023-03-02T08:49:39.340Z,101883.14
2023-03-02T08:50:43.603Z,101878.25
2023-03-02T08:51:47.868Z,101875.18
2023-03-02T08:52:52.130Z,101880.28
2023-03-02T08:53:56.652Z,101882.84
2023-03-02T08:55:03.985Z,101878.02
2023-03-02T08:56:08.495Z,101878.54
2023-03-02T08:57:12.831Z,101875.3
2023-03-02T08:58:17.191Z,101877.29
2023-03-02T08:59:22.454Z,101869.93
2023-03-02T09:00:26.846Z,101874.72
2023-03-02T09:01:34.044Z,101869.25
2023-03-02T09:02:39.223Z,101870.27
2023-03-02T09:03:43.482Z,101871.62
2023-03-02T09:04:47.966Z,101865.88
2023-03-02T09:05:52.393Z,101878.04
2023-03-02T09:06:56.661Z,101863.71
2023-03-02T09:08:00.930Z,101867.59
2023-03-02T09:09:05.219Z,101869.02
2023-03-02T09:10:09.481Z,101869.08
2023-03-02T09:11:13.721Z,101868.3
2023-03-02T09:12:17.986Z,101863.05
2023-03-02T09:13:22.243Z,101861.56
2023-03-02T09:14:26.532Z,101865.73
2023-03-02T09:15:30.791Z,101867.19
2023-03-02T09:16:35.144Z,101865.42
2023-03-02T09:17:39.538Z,101864.08
2023-03-02T09:18:43.800Z,101862.02
2023-03-02T09:19:49.064Z,101868.06
2023-03-02T09:20:53.343Z,101862.97
2023-03-02T09:21:57.597Z,101864.15
2023-03-02T09:23:01.855Z,101859.66
2023-03-02T09:24:06.201Z,101860.69
2023-03-02T09:25:10.513Z,101858.69
2023-03-02T09:26:14.758Z,101854.88
2023-03-02T09:27:19.250Z,101858.12
2023-03-02T09:28:23.587Z,101851.53
2023-03-02T09:29:27.841Z,101853.08
2023-03-02T09:30:32.091Z,101852.3
2023-03-02T09:31:37.605Z,101854.98
2023-03-02T09:32:42.857Z,101853.48
2023-03-02T09:33:47.326Z,101852.81
2023-03-02T09:34:51.602Z,101856.42
2023-03-02T09:35:55.887Z,101853.44
2023-03-02T09:37:00.206Z,101846.91
2023-03-02T09:38:04.707Z,101854.58
2023-03-02T09:39:08.992Z,101848.42
2023-03-02T09:40:13.289Z,101851.19
2023-03-02T09:41:17.534Z,101855.73
2023-03-02T09:42:22.868Z,101857.16
2023-03-02T09:43:38.219Z,101852.89
2023-03-02T09:44:42.452Z,101853.4
2023-03-02T09:45:46.814Z,101854.43
2023-03-02T09:46:51.164Z,101856.19
2023-03-02T09:47:55.409Z,101856.34
2023-03-02T09:48:59.658Z,101850.98
2023-03-02T09:50:07.472Z,101855.97
2023-03-02T09:51:11.759Z,101857.73
2023-03-02T09:52:16.257Z,101856.34
2023-03-02T09:53:20.509Z,101858.14
2023-03-02T09:54:24.969Z,101855.72
2023-03-02T09:55:29.563Z,101857.62
2023-03-02T09:56:34.373Z,101853.71
2023-03-02T09:57:38.976Z,101853.41
2023-03-02T09:58:43.246Z,101854.33
2023-03-02T09:59:47.475Z,101852.77
2023-03-02T10:00:51.791Z,101849.23
2023-03-02T10:01:56.059Z,101852.27
2023-03-02T10:03:17.554Z,101853.8
2023-03-02T10:04:22.342Z,101853.8
2023-03-02T10:05:26.905Z,101855.09
2023-03-02T10:06:31.968Z,101860.5
2023-03-02T10:07:36.802Z,101854.28
2023-03-02T10:08:41.063Z,101858.19
2023-03-02T10:09:45.377Z,101853.19
2023-03-02T10:10:49.668Z,101857.37
2023-03-02T10:11:53.930Z,101856.89
2023-03-02T10:12:58.188Z,101850.05
2023-03-02T10:14:02.474Z,101848.4
2023-03-02T10:15:06.740Z,101850.73
2023-03-02T10:16:11.158Z,101843.08
2023-03-02T10:17:15.568Z,101849.46
2023-03-02T10:18:19.832Z,101852.45
2023-03-02T10:19:24.099Z,101851.22
2023-03-02T10:20:34.048Z,101858.07
2023-03-02T10:21:38.562Z,101861.27
2023-03-02T10:22:42.823Z,101858.02
2023-03-02T10:23:47.125Z,101860.17
2023-03-02T10:24:51.378Z,101858.2
2023-03-02T10:25:55.663Z,101856.63
2023-03-02T10:26:59.927Z,101852.97
2023-03-02T10:28:04.199Z,101851.56
2023-03-02T10:29:08.476Z,101853.68
2023-03-02T10:30:13.041Z,101853.38
2023-03-02T10:31:17.508Z,101856.68
2023-03-02T10:32:22.220Z,101847.23
2023-03-02T10:33:26.646Z,101850.45
2023-03-02T10:34:30.906Z,101851.43
2023-03-02T10:35:35.216Z,101846.78
2023-03-02T10:36:39.578Z,101842.31
2023-03-02T10:37:45.123Z,101844.63
2023-03-02T10:38:49.457Z,101846.06
2023-03-02T10:39:53.808Z,101840.34
2023-03-02T10:40:58.080Z,101842.3
2023-03-02T10:42:02.347Z,101848.08
2023-03-02T10:43:06.728Z,101844.88
2023-03-02T10:44:10.993Z,101842.81
2023-03-02T10:45:15.260Z,101844.36
2023-03-02T10:46:19.699Z,101838.7
2023-03-02T10:47:24.002Z,101836.94
2023-03-02T10:48:28.274Z,101848.08
2023-03-02T10:49:32.579Z,101835.83
2023-03-02T10:50:36.851Z,101837.64
2023-03-02T10:51:42.123Z,101835.16
2023-03-02T10:53:01.983Z,101835.22
2023-03-02T10:54:08.849Z,101839.75
2023-03-02T10:55:13.174Z,101843.82
2023-03-02T10:56:17.420Z,101840.84
2023-03-02T10:57:21.745Z,101831.61
2023-03-02T10:58:26.139Z,101831.25
2023-03-02T10:59:30.492Z,101832.23
2023-03-02T11:00:34.775Z,101824.25
2023-03-02T11:01:39.329Z,101832.84
2023-03-02T11:02:43.787Z,101828.88
2023-03-02T11:03:48.084Z,101829.75
2023-03-02T11:04:52.461Z,101830.47
2023-03-02T11:06:00.170Z,101825.95
2023-03-02T11:07:04.408Z,101825.22
2023-03-02T11:08:08.737Z,101818.95
2023-03-02T11:09:13.017Z,101831.56
2023-03-02T11:10:17.352Z,101820.02
2023-03-02T11:11:21.787Z,101824.5
2023-03-02T11:12:26.153Z,101826.82
2023-03-02T11:13:30.392Z,101820.63
2023-03-02T11:14:34.719Z,101825.42
2023-03-02T11:15:39.162Z,101815.63
2023-03-02T11:16:43.480Z,101820.37
2023-03-02T11:17:47.724Z,101819.09
2023-03-02T11:18:51.983Z,101810.49
2023-03-02T11:19:56.249Z,101810.55
2023-03-02T11:21:00.572Z,101815.8
2023-03-02T11:22:04.869Z,101807.55
2023-03-02T11:23:09.139Z,101811.93
2023-03-02T11:24:13.430Z,101802.23
2023-03-02T11:25:17.744Z,101802.81
2023-03-02T11:26:21.998Z,101806.91
2023-03-02T11:27:26.398Z,101807.13
2023-03-02T11:28:30.635Z,101810.82
2023-03-02T11:29:34.921Z,101807.94
2023-03-02T11:30:39.153Z,101804.28
2023-03-02T11:31:43.543Z,101811.39
2023-03-02T11:32:48.060Z,101807.2
2023-03-02T11:33:52.690Z,101809.44
2023-03-02T11:34:58.138Z,101807.38
2023-03-02T11:36:02.517Z,101807.82
2023-03-02T11:37:06.859Z,101811.28
2023-03-02T11:38:11.118Z,101802.94
2023-03-02T11:39:15.346Z,101810.56
2023-03-02T11:40:19.663Z,101804.78
2023-03-02T11:41:23.930Z,101800.94
2023-03-02T11:42:28.247Z,101805.82
2023-03-02T11:43:32.755Z,101796.29
2023-03-02T11:44:37.025Z,101802.48
2023-03-02T11:45:41.279Z,101801.85
2023-03-02T11:46:45.654Z,101796.25
2023-03-02T11:48:03.092Z,101800.27
2023-03-02T11:49:07.824Z,101796.89
2023-03-02T11:50:12.079Z,101792.16
2023-03-02T11:51:16.370Z,101795.81
2023-03-02T11:52:20.634Z,101796.8
2023-03-02T11:53:25.032Z,101795.04
2023-03-02T11:54:29.405Z,101797.41
2023-03-02T11:55:33.662Z,101789.83
2023-03-02T11:56:37.920Z,101797.5
2023-03-02T11:57:42.174Z,101791.34
2023-03-02T11:58:46.492Z,101789.16
2023-03-02T11:59:50.736Z,101797.26
2023-03-02T12:00:55.049Z,101790.7
2023-03-02T12:01:59.478Z,101792.47
2023-03-02T12:03:04.387Z,101788.86
2023-03-02T12:04:08.908Z,101784.69
2023-03-02T12:05:13.372Z,101791.02
2023-03-02T12:06:17.787Z,101795.04
2023-03-02T12:07:22.019Z,101787.06
2023-03-02T12:08:26.272Z,101790.45
2023-03-02T12:09:30.533Z,101784.11
2023-03-02T12:10:34.903Z,101787.51
2023-03-02T12:11:39.150Z,101785.87
2023-03-02T12:12:43.422Z,101781.97
2023-03-02T12:13:47.668Z,101786.79
2023-03-02T12:14:51.990Z,101781.97
2023-03-02T12:15:56.351Z,101775.72
2023-03-02T12:17:00.794Z,101778.03
2023-03-02T12:18:05.265Z,101780.52